Time;durP1;ratioP1;P1;durP2;ratioP2;P2;SDS_P1;SDS_P2;PMS_P1;PMS_P2;Temp;Humidity;BMP_temperature;BMP_pressure;BME280_temperature;BME280_humidity;BME280_pressure;Samples;Min_cycle;Max_cycle;Signal;HPM_P1;HPM_P2
2022/05/09 00:00:38;;;;;;;;;6.00;4.00;;;;;10.26;58.40;100942.69;5038880;28;8844;-63
2022/05/09 00:03:05;;;;;;;;;6.25;6.00;;;;;10.24;58.55;100939.28;5038202;28;8982;-63
2022/05/09 00:05:33;;;;;;;;;3.50;3.00;;;;;10.20;58.95;100940.44;5038231;28;8828;-63
2022/05/09 00:08:01;;;;;;;;;7.00;6.00;;;;;10.17;59.02;100932.63;5038019;28;8955;-63
2022/05/09 00:10:29;;;;;;;;;6.50;6.50;;;;;10.15;59.10;100939.88;5037812;28;8829;-65
2022/05/09 00:12:56;;;;;;;;;4.00;4.00;;;;;10.11;59.18;100926.84;5038104;28;8848;-64
2022/05/09 00:15:24;;;;;;;;;6.00;5.50;;;;;10.08;58.72;100935.03;5038400;28;8848;-63
2022/05/09 00:17:53;;;;;;;;;4.00;4.00;;;;;10.04;59.33;100934.38;5038215;28;8832;-63
2022/05/09 00:20:21;;;;;;;;;6.00;6.00;;;;;10.01;59.29;100936.31;5049808;28;8826;-64
2022/05/09 00:22:48;;;;;;;;;6.50;6.00;;;;;9.92;59.39;100937.72;5057093;28;8846;-63
2022/05/09 00:25:16;;;;;;;;;6.25;5.00;;;;;9.86;59.08;100938.09;5056880;28;8846;-64
2022/05/09 00:27:44;;;;;;;;;6.25;5.50;;;;;9.79;59.68;100939.41;5056969;28;8846;-63
2022/05/09 00:30:12;;;;;;;;;5.00;4.00;;;;;9.73;59.75;100931.78;5057211;28;8838;-63
2022/05/09 00:32:39;;;;;;;;;4.00;3.75;;;;;9.69;59.97;100937.41;5050179;28;8847;-64
2022/05/09 00:35:09;;;;;;;;;7.00;6.60;;;;;9.66;59.91;100935.78;5036976;28;9725;-64
2022/05/09 00:37:36;;;;;;;;;5.00;5.00;;;;;9.62;60.13;100931.59;5037823;28;8979;-64
2022/05/09 00:40:05;;;;;;;;;5.50;5.50;;;;;9.61;59.99;100932.56;5038001;28;8843;-63
2022/05/09 00:42:34;;;;;;;;;7.40;7.00;;;;;9.61;59.89;100929.03;5037896;28;9475;-63
2022/05/09 00:45:02;;;;;;;;;7.00;7.00;;;;;9.60;59.83;100922.88;5037628;28;8979;-63
2022/05/09 00:47:29;;;;;;;;;6.60;6.00;;;;;9.61;60.17;100931.69;5036692;28;8858;-63
2022/05/09 00:49:57;;;;;;;;;8.50;7.50;;;;;9.59;59.30;100923.81;5044373;28;8823;-63
2022/05/09 00:52:26;;;;;;;;;9.00;9.00;;;;;9.60;59.94;100930.84;5057812;28;8846;-66
2022/05/09 00:54:53;;;;;;;;;9.20;9.00;;;;;9.61;59.29;100926.38;5057647;28;9006;-64
2022/05/09 00:57:21;;;;;;;;;7.80;6.60;;;;;9.59;59.92;100923.81;5057405;28;8831;-63
2022/05/09 00:59:49;;;;;;;;;5.80;5.80;;;;;9.56;59.77;100926.66;5057479;28;8842;-63
2022/05/09 01:02:17;;;;;;;;;7.40;6.80;;;;;9.51;60.12;100925.22;5057490;28;8826;-63
2022/05/09 01:04:45;;;;;;;;;3.00;3.00;;;;;9.48;60.16;100920.94;5057806;28;8838;-64
2022/05/09 01:07:12;;;;;;;;;4.80;4.80;;;;;9.46;60.11;100922.84;5057744;28;8830;-63
2022/05/09 01:09:40;;;;;;;;;4.00;1.60;;;;;9.43;60.17;100927.47;5057657;28;8874;-63
2022/05/09 01:12:08;;;;;;;;;4.00;4.00;;;;;9.41;60.07;100926.72;5057078;28;8830;-64
2022/05/09 01:14:36;;;;;;;;;6.80;6.00;;;;;9.40;60.23;100927.63;5057635;28;8916;-64
2022/05/09 01:17:04;;;;;;;;;4.80;4.40;;;;;9.36;60.32;100921.69;5057056;28;8870;-64
2022/05/09 01:19:31;;;;;;;;;6.00;6.00;;;;;9.34;60.15;100928.88;5052025;28;8836;-63
2022/05/09 01:21:59;;;;;;;;;4.00;4.00;;;;;9.28;60.34;100921.25;5036836;28;8849;-63
2022/05/09 01:24:27;;;;;;;;;5.60;4.00;;;;;9.22;60.49;100921.63;5037307;28;8979;-65
2022/05/09 01:26:54;;;;;;;;;3.40;3.40;;;;;9.16;61.07;100916.66;5037328;28;8871;-62
2022/05/09 01:29:22;;;;;;;;;4.40;4.00;;;;;9.11;60.67;100918.72;5037168;28;8959;-63
2022/05/09 01:31:50;;;;;;;;;4.00;4.00;;;;;9.05;60.97;100920.88;5036917;28;9011;-63
2022/05/09 01:34:18;;;;;;;;;7.00;6.00;;;;;8.99;61.17;100913.25;5037062;28;8942;-63
2022/05/09 01:36:45;;;;;;;;;4.00;4.00;;;;;8.91;61.36;100916.38;5036653;28;8858;-64
2022/05/09 01:39:14;;;;;;;;;6.20;5.60;;;;;8.85;61.40;100918.50;5036810;28;8832;-64
2022/05/09 01:41:43;;;;;;;;;7.00;6.40;;;;;8.82;61.31;100908.91;5036758;28;8872;-63
2022/05/09 01:44:11;;;;;;;;;4.20;3.80;;;;;8.80;61.71;100926.75;5036449;28;8852;-64
2022/05/09 01:49:29;;;;;;;;;7.00;7.00;;;;;8.79;61.68;100922.38;5037090;28;8851;-63
2022/05/09 01:49:31;;;;;;;;;9.80;7.00;;;;;8.78;61.53;100920.66;5039133;28;8821;-63
2022/05/09 01:51:59;;;;;;;;;6.40;6.20;;;;;8.78;61.10;100920.66;5055407;28;8858;-63
2022/05/09 01:54:27;;;;;;;;;5.60;5.60;;;;;8.76;61.13;100914.59;5056216;28;8848;-63
2022/05/09 01:56:54;;;;;;;;;7.20;6.80;;;;;8.76;61.60;100919.91;5056142;28;8846;-63
2022/05/09 01:59:22;;;;;;;;;6.00;5.20;;;;;8.78;61.49;100919.78;5056229;28;8834;-63
2022/05/09 02:01:50;;;;;;;;;5.60;5.60;;;;;8.76;61.62;100919.91;5056690;28;9555;-63
2022/05/09 02:04:18;;;;;;;;;5.20;3.60;;;;;8.75;61.45;100917.31;5054510;28;8830;-63
2022/05/09 02:06:46;;;;;;;;;3.80;3.00;;;;;8.75;61.43;100920.81;5056340;28;8834;-63
2022/05/09 02:09:15;;;;;;;;;9.40;9.00;;;;;8.74;61.38;100924.41;5056257;28;8834;-63
2022/05/09 02:11:42;;;;;;;;;7.00;7.00;;;;;8.74;61.04;100921.75;5056515;28;8834;-63
2022/05/09 02:14:10;;;;;;;;;3.00;3.00;;;;;8.73;61.20;100924.53;5056139;28;9505;-63
2022/05/09 02:16:37;;;;;;;;;6.40;6.40;;;;;8.71;61.23;100921.94;5055972;28;8838;-63
2022/05/09 02:19:06;;;;;;;;;8.60;8.60;;;;;8.70;61.63;100920.25;5055459;28;8850;-64
2022/05/09 02:21:34;;;;;;;;;6.40;6.40;;;;;8.69;61.53;100920.31;5036235;28;8905;-63
2022/05/09 02:24:02;;;;;;;;;8.80;8.80;;;;;8.66;61.30;100918.69;5035845;28;8856;-63
2022/05/09 02:26:31;;;;;;;;;5.60;5.60;;;;;8.65;61.75;100916.13;5035965;28;8824;-63
2022/05/09 02:28:59;;;;;;;;;6.00;3.60;;;;;8.61;61.84;100915.47;5036273;28;8848;-62
2022/05/09 02:31:27;;;;;;;;;6.80;6.40;;;;;8.57;61.54;100913.91;5035986;28;8833;-63
2022/05/09 02:33:55;;;;;;;;;6.20;6.20;;;;;8.54;61.62;100918.53;5035710;28;9006;-63
2022/05/09 02:36:23;;;;;;;;;9.80;9.00;;;;;8.49;61.89;100905.50;5036131;28;8832;-64
2022/05/09 02:38:51;;;;;;;;;4.60;4.40;;;;;8.47;62.08;100906.53;5035987;28;8860;-64
2022/05/09 02:41:18;;;;;;;;;6.40;6.40;;;;;8.43;62.15;100902.34;5035887;28;8856;-64
2022/05/09 02:43:46;;;;;;;;;6.00;5.20;;;;;8.40;61.90;100906.03;5044218;28;8830;-63
2022/05/09 02:46:14;;;;;;;;;6.20;6.20;;;;;8.35;62.09;100910.72;5055908;28;9517;-63
2022/05/09 02:48:42;;;;;;;;;11.00;8.40;;;;;8.30;61.91;100910.09;5055785;28;8834;-63
2022/05/09 02:51:10;;;;;;;;;6.60;6.20;;;;;8.25;62.09;100911.31;5055595;28;8855;-63
2022/05/09 02:53:37;;;;;;;;;6.20;6.20;;;;;8.20;62.10;100908.91;5055534;28;8856;-63
2022/05/09 02:56:05;;;;;;;;;6.60;6.20;;;;;8.17;62.33;100908.19;5056076;28;8880;-63
2022/05/09 02:58:33;;;;;;;;;11.20;10.40;;;;;8.14;62.27;100914.50;5055367;28;8868;-64
2022/05/09 03:01:00;;;;;;;;;8.80;8.80;;;;;8.12;62.56;100913.75;5055526;28;8846;-62
2022/05/09 03:06:14;;;;;;;;;7.40;6.40;;;;;8.13;62.56;100904.00;5055776;28;8835;-63
2022/05/09 03:08:42;;;;;;;;;9.40;6.00;;;;;8.12;62.74;100908.44;5055551;28;8975;-63
2022/05/09 03:11:09;;;;;;;;;9.20;9.20;;;;;8.10;62.24;100897.06;5058988;28;8872;-63
2022/05/09 03:13:38;;;;;;;;;8.20;8.20;;;;;8.09;62.47;100903.31;5052223;28;8844;-63
2022/05/09 03:16:09;;;;;;;;;10.80;8.20;;;;;8.09;62.45;100903.31;5039162;28;8856;-63
2022/05/09 03:18:37;;;;;;;;;10.00;9.00;;;;;8.08;62.35;100901.59;5039460;28;8860;-63
2022/05/09 03:21:05;;;;;;;;;8.80;6.00;;;;;8.07;62.34;100897.22;5039298;28;8995;-64
2022/05/09 03:23:33;;;;;;;;;6.40;6.40;;;;;8.05;62.22;100885.84;5039423;28;9490;-64
2022/05/09 03:26:00;;;;;;;;;7.00;6.40;;;;;8.03;62.37;100893.03;5039184;28;8847;-64
2022/05/09 03:28:28;;;;;;;;;7.00;7.00;;;;;7.99;62.70;100893.28;5039497;28;8829;-63
2022/05/09 03:30:56;;;;;;;;;6.80;6.00;;;;;7.92;62.41;100892.72;5039034;28;8852;-63
2022/05/09 03:33:27;;;;;;;;;4.00;4.00;;;;;7.87;62.82;100884.19;5039392;28;8848;-63
2022/05/09 03:35:54;;;;;;;;;6.80;5.60;;;;;7.84;63.12;100894.09;5039290;28;8832;-63
2022/05/09 03:38:22;;;;;;;;;7.40;7.40;;;;;7.80;62.93;100890.75;5039261;28;8852;-63
2022/05/09 03:40:50;;;;;;;;;1.00;1.00;;;;;7.78;62.76;100892.63;5039139;28;8844;-64
2022/05/09 03:43:18;;;;;;;;;7.00;6.00;;;;;7.76;63.03;100891.84;5042409;28;8852;-63
2022/05/09 03:45:45;;;;;;;;;3.80;3.80;;;;;7.73;62.65;100892.00;5058545;28;8856;-64
2022/05/09 03:48:13;;;;;;;;;8.00;6.00;;;;;7.73;63.18;100886.72;5058558;28;8830;-64
2022/05/09 03:50:41;;;;;;;;;6.00;6.00;;;;;7.71;62.74;100885.06;5059075;28;8854;-63
2022/05/09 03:53:08;;;;;;;;;4.80;4.00;;;;;7.69;62.97;100884.31;5058616;28;8842;-63
2022/05/09 03:55:36;;;;;;;;;4.00;4.00;;;;;7.65;63.27;100882.75;5058654;28;8856;-63
2022/05/09 03:58:04;;;;;;;;;4.00;3.40;;;;;7.62;62.64;100882.03;5058412;28;8876;-63
2022/05/09 04:00:33;;;;;;;;;4.60;3.40;;;;;7.59;63.09;100887.53;5058626;28;8852;-63
2022/05/09 04:03:00;;;;;;;;;5.20;5.20;;;;;7.57;62.82;100881.44;5058459;28;8853;-63
2022/05/09 04:05:30;;;;;;;;;7.80;7.00;;;;;7.56;63.44;100877.94;5058476;28;8956;-63
2022/05/09 04:07:58;;;;;;;;;5.60;4.00;;;;;7.56;63.36;100879.72;5057829;28;8841;-63
2022/05/09 04:10:26;;;;;;;;;6.00;6.00;;;;;7.55;63.41;100885.94;5058141;28;8834;-62
2022/05/09 04:12:54;;;;;;;;;4.00;4.00;;;;;7.53;63.20;100883.41;5057449;28;8845;-62
2022/05/09 04:18:07;;;;;;;;;3.80;3.40;;;;;7.51;63.31;100884.41;5058108;28;8875;-63
2022/05/09 04:20:35;;;;;;;;;6.20;5.60;;;;;7.50;63.58;100882.69;5057310;28;8846;-63
2022/05/09 04:23:03;;;;;;;;;4.40;4.40;;;;;7.49;63.54;100888.94;5056628;28;8854;-63
2022/05/09 04:25:31;;;;;;;;;4.40;4.00;;;;;7.48;63.18;100890.72;5056260;28;8969;-63
2022/05/09 04:28:02;;;;;;;;;6.40;5.60;;;;;7.52;62.95;100891.41;5055938;28;8858;-63
2022/05/09 04:30:30;;;;;;;;;4.00;4.00;;;;;7.57;62.82;100889.41;5055863;28;8830;-63
2022/05/09 04:32:57;;;;;;;;;3.60;3.60;;;;;7.68;62.69;100892.34;5056464;28;8850;-64
2022/05/09 04:35:25;;;;;;;;;4.00;4.00;;;;;7.76;62.94;100891.84;5056195;28;8880;-64
2022/05/09 04:37:53;;;;;;;;;6.40;6.40;;;;;7.84;62.55;100894.94;5056358;28;8846;-64
2022/05/09 04:40:21;;;;;;;;;6.00;6.00;;;;;7.96;62.59;100889.00;5057519;28;8836;-64
2022/05/09 04:42:49;;;;;;;;;3.40;3.40;;;;;8.09;62.33;100883.88;5055750;28;8834;-63
2022/05/09 04:45:17;;;;;;;;;5.60;4.00;;;;;8.23;61.61;100887.53;5055784;28;8840;-64
2022/05/09 04:47:46;;;;;;;;;6.00;6.00;;;;;8.46;61.52;100891.56;5056062;28;8854;-64
2022/05/09 04:50:14;;;;;;;;;7.00;7.00;;;;;8.67;61.16;100885.88;5056628;28;8884;-64
2022/05/09 04:52:41;;;;;;;;;6.60;5.60;;;;;8.88;60.63;100887.31;5057737;28;8972;-64
2022/05/09 04:55:09;;;;;;;;;6.00;5.20;;;;;9.07;60.33;100887.09;5057287;28;8850;-63
2022/05/09 04:57:37;;;;;;;;;4.40;4.40;;;;;9.22;60.06;100880.91;5056064;28;8961;-64
2022/05/09 05:00:05;;;;;;;;;6.80;6.00;;;;;9.33;60.24;100878.47;5055512;28;8896;-65
2022/05/09 05:02:33;;;;;;;;;6.40;6.40;;;;;9.42;59.77;100876.09;5056377;28;8979;-64
2022/05/09 05:05:02;;;;;;;;;4.00;4.00;;;;;9.50;59.43;100884.47;5057121;28;8963;-64
2022/05/09 05:07:30;;;;;;;;;9.00;7.00;;;;;9.65;59.29;100877.38;5057120;28;8892;-64
2022/05/09 05:09:58;;;;;;;;;9.80;9.00;;;;;9.76;58.85;100881.09;5056804;28;8842;-65
2022/05/09 05:12:25;;;;;;;;;9.60;8.60;;;;;9.92;59.18;100889.84;5056446;28;8918;-64
2022/05/09 05:14:53;;;;;;;;;7.00;6.00;;;;;10.08;58.93;100887.97;5038384;28;9500;-63
2022/05/09 05:17:21;;;;;;;;;8.60;7.40;;;;;10.27;58.92;100885.00;5036643;28;8851;-64
2022/05/09 05:19:49;;;;;;;;;4.40;4.00;;;;;10.37;58.61;100884.31;5036502;28;9531;-65
2022/05/09 05:22:17;;;;;;;;;6.50;6.50;;;;;10.45;58.48;100879.38;5036345;28;8868;-64
2022/05/09 05:24:45;;;;;;;;;10.00;9.25;;;;;10.54;58.39;100883.25;5036294;28;8833;-64
2022/05/09 05:27:12;;;;;;;;;6.50;6.50;;;;;10.59;58.51;100879.34;5035600;28;8852;-63
2022/05/09 05:29:41;;;;;;;;;9.00;8.00;;;;;10.64;58.55;100877.25;5036417;28;8924;-64
2022/05/09 05:32:09;;;;;;;;;7.00;6.00;;;;;10.69;58.79;100883.09;5034843;28;8874;-65
2022/05/09 05:34:36;;;;;;;;;6.75;5.50;;;;;10.72;58.38;100882.91;5034845;28;8832;-64
2022/05/09 05:37:07;;;;;;;;;2.75;2.75;;;;;10.84;58.21;100879.44;5035380;28;8840;-64
2022/05/09 05:39:36;;;;;;;;;6.00;6.00;;;;;10.96;58.14;100881.31;5034565;28;8855;-63
2022/05/09 05:42:04;;;;;;;;;6.00;6.00;;;;;11.04;58.25;100878.97;5035855;28;8878;-64
2022/05/09 05:44:32;;;;;;;;;9.00;7.00;;;;;11.13;57.89;100877.50;5052418;28;8952;-64
2022/05/09 05:47:04;;;;;;;;;9.00;9.00;;;;;11.20;58.13;100874.34;5054663;28;8826;-64
2022/05/09 05:49:31;;;;;;;;;9.00;7.00;;;;;11.30;57.87;100870.06;5053423;28;8837;-64
2022/05/09 05:52:03;;;;;;;;;9.00;7.00;;;;;11.41;57.98;100867.56;5033963;28;8983;-64
2022/05/09 05:54:31;;;;;;;;;9.50;8.50;;;;;11.55;57.67;100875.47;5033975;28;8848;-65
2022/05/09 05:56:59;;;;;;;;;7.00;7.00;;;;;11.71;57.49;100873.47;5033494;28;8859;-64
2022/05/09 05:59:27;;;;;;;;;9.00;9.00;;;;;11.89;56.83;100874.84;5032589;28;8880;-65
2022/05/09 06:01:54;;;;;;;;;9.00;9.00;;;;;12.06;56.49;100877.19;5032924;28;8833;-64
2022/05/09 06:04:22;;;;;;;;;9.00;9.00;;;;;12.21;56.44;100879.63;5033517;28;8845;-64
2022/05/09 06:06:50;;;;;;;;;7.50;6.50;;;;;12.31;56.11;100877.16;5033074;28;9781;-64
2022/05/09 06:09:18;;;;;;;;;9.25;7.50;;;;;12.35;55.93;100871.47;5033340;28;8866;-64
2022/05/09 06:11:48;;;;;;;;;9.50;8.00;;;;;12.47;56.20;100877.75;5033385;28;8856;-64
2022/05/09 06:14:16;;;;;;;;;10.00;10.00;;;;;12.63;56.25;100871.19;5033711;28;8938;-64
2022/05/09 06:16:45;;;;;;;;;9.00;7.00;;;;;12.79;55.77;100874.44;5035209;28;8975;-65
2022/05/09 06:19:12;;;;;;;;;10.50;9.25;;;;;12.92;55.26;100871.72;5049915;28;8919;-64
2022/05/09 06:21:40;;;;;;;;;4.00;3.25;;;;;13.07;55.42;100867.94;5032259;28;8902;-64
2022/05/09 06:24:08;;;;;;;;;11.00;9.00;;;;;13.21;55.17;100865.06;5033163;28;8836;-64
2022/05/09 06:26:36;;;;;;;;;10.50;9.50;;;;;13.33;54.98;100869.47;5033164;28;8844;-62
2022/05/09 06:29:06;;;;;;;;;9.00;8.00;;;;;13.43;55.40;100865.16;5032382;28;8836;-67
2022/05/09 06:31:34;;;;;;;;;7.00;6.75;;;;;13.53;55.08;100866.13;5032994;28;8848;-64
2022/05/09 06:34:01;;;;;;;;;6.50;6.50;;;;;13.63;54.80;100864.44;5033059;28;8828;-64
2022/05/09 06:36:29;;;;;;;;;6.00;5.00;;;;;13.75;54.58;100860.81;5036807;28;8942;-65
2022/05/09 06:38:57;;;;;;;;;7.00;7.00;;;;;13.85;54.83;100857.31;5034383;28;8852;-64
2022/05/09 06:41:25;;;;;;;;;7.25;6.50;;;;;13.97;54.55;100861.69;5034264;28;8844;-63
2022/05/09 06:43:52;;;;;;;;;9.25;7.50;;;;;14.08;54.77;100863.50;5034038;28;8857;-65
2022/05/09 06:46:20;;;;;;;;;7.25;6.25;;;;;14.20;53.88;100857.22;5034092;28;8978;-63
2022/05/09 06:48:55;;;;;;;;;6.00;6.00;;;;;14.34;54.70;100859.66;5039412;28;8857;-63
2022/05/09 06:51:23;;;;;;;;;6.25;5.75;;;;;14.44;53.90;100863.28;5033458;28;8856;-64
2022/05/09 06:53:52;;;;;;;;;7.50;6.75;;;;;14.53;53.78;100862.53;5033239;28;8832;-67
2022/05/09 06:56:19;;;;;;;;;6.25;5.00;;;;;14.63;53.60;100858.16;5042944;28;8814;-72
2022/05/09 06:58:48;;;;;;;;;7.00;6.50;;;;;14.77;53.98;100852.47;5040636;28;9648;-64
2022/05/09 07:01:15;;;;;;;;;9.50;7.00;;;;;14.94;53.21;100854.66;5034321;28;8828;-64
2022/05/09 07:03:43;;;;;;;;;7.50;6.00;;;;;15.10;52.88;100841.66;5034336;28;8845;-64
2022/05/09 07:06:11;;;;;;;;;6.00;6.00;;;;;15.25;53.08;100843.88;5033799;28;8850;-64
2022/05/09 07:08:39;;;;;;;;;1.50;1.50;;;;;15.43;53.00;100841.50;5033681;28;8909;-64
2022/05/09 07:11:07;;;;;;;;;6.00;6.00;;;;;15.60;52.49;100832.84;5033630;28;8840;-64
2022/05/09 07:13:39;;;;;;;;;6.75;6.75;;;;;15.73;52.65;100838.88;5032841;28;8851;-65
2022/05/09 07:16:08;;;;;;;;;8.50;8.50;;;;;15.84;52.48;100841.50;5033700;28;8950;-63
2022/05/09 07:18:39;;;;;;;;;6.00;5.00;;;;;15.97;52.14;100831.38;5033386;28;8848;-67
2022/05/09 07:21:07;;;;;;;;;4.00;4.00;;;;;16.12;51.88;100840.75;5032874;28;8852;-64
2022/05/09 07:23:35;;;;;;;;;6.50;6.00;;;;;16.23;51.70;100832.63;5031753;28;8836;-64
2022/05/09 07:26:02;;;;;;;;;6.50;5.00;;;;;16.34;51.56;100836.88;5031240;28;8856;-64
2022/05/09 07:28:31;;;;;;;;;7.00;6.00;;;;;16.47;51.38;100832.16;5031906;28;8974;-63
2022/05/09 07:30:59;;;;;;;;;7.00;7.00;;;;;16.60;50.87;100842.66;5048047;28;8826;-64
2022/05/09 07:33:27;;;;;;;;;4.00;4.00;;;;;16.71;51.32;100835.31;5052305;28;8846;-67
2022/05/09 07:35:55;;;;;;;;;6.00;5.00;;;;;16.84;50.91;100835.91;5052160;28;8911;-64
2022/05/09 07:38:23;;;;;;;;;8.00;7.00;;;;;16.95;50.72;100838.44;5052785;28;8849;-64
2022/05/09 07:40:50;;;;;;;;;6.75;6.75;;;;;17.07;50.63;100831.97;5052042;28;8842;-64
2022/05/09 07:43:18;;;;;;;;;7.00;6.50;;;;;17.17;50.66;100832.78;5053073;28;8846;-64
2022/05/09 07:45:47;;;;;;;;;9.00;7.00;;;;;17.29;50.49;100834.38;5053181;28;8846;-63
2022/05/09 07:48:16;;;;;;;;;8.50;6.25;;;;;17.40;50.70;100828.84;5052919;28;8856;-65
2022/05/09 07:50:43;;;;;;;;;9.50;9.00;;;;;17.55;50.35;100831.97;5052925;28;8866;-64
2022/05/09 07:53:11;;;;;;;;;7.25;7.25;;;;;17.67;49.90;100831.66;5051914;28;8896;-64
2022/05/09 07:55:39;;;;;;;;;8.00;7.00;;;;;17.77;49.85;100829.75;5053387;28;8850;-64
2022/05/09 07:58:07;;;;;;;;;9.50;9.50;;;;;17.88;50.24;100829.59;5056121;28;8838;-64
2022/05/09 08:00:35;;;;;;;;;6.25;6.25;;;;;17.99;50.13;100826.72;5053232;28;8842;-64
2022/05/09 08:03:03;;;;;;;;;5.40;4.00;;;;;18.10;49.82;100823.84;5055720;28;8846;-64
2022/05/09 08:05:31;;;;;;;;;7.00;6.00;;;;;18.21;49.96;100826.34;5056133;28;8853;-64
2022/05/09 08:07:59;;;;;;;;;8.60;7.00;;;;;18.32;49.80;100822.66;5055846;28;8858;-64
2022/05/09 08:10:27;;;;;;;;;8.20;6.40;;;;;18.44;49.47;100816.88;5035179;28;8971;-64
2022/05/09 08:12:55;;;;;;;;;9.00;8.60;;;;;18.56;49.30;100821.09;5035889;28;8994;-64
2022/05/09 08:15:22;;;;;;;;;7.20;7.20;;;;;18.67;48.75;100828.13;5035752;28;8862;-65
2022/05/09 08:17:52;;;;;;;;;4.20;4.20;;;;;18.78;48.88;100817.09;5037780;28;8840;-64
2022/05/09 08:20:20;;;;;;;;;6.80;6.80;;;;;18.90;49.24;100827.53;5053252;28;8903;-64
2022/05/09 08:22:47;;;;;;;;;6.40;6.20;;;;;19.00;48.85;100822.06;5054560;28;8876;-64
2022/05/09 08:25:17;;;;;;;;;9.40;9.00;;;;;19.14;48.62;100819.69;5055709;28;8865;-65
2022/05/09 08:27:44;;;;;;;;;5.20;5.20;;;;;19.28;48.38;100824.53;5055701;28;9817;-64
2022/05/09 08:30:12;;;;;;;;;2.80;2.80;;;;;19.42;48.59;100815.03;5056123;28;8968;-64
2022/05/09 08:32:43;;;;;;;;;8.60;8.60;;;;;19.58;48.67;100818.69;5055611;28;8854;-64
2022/05/09 08:35:13;;;;;;;;;4.60;4.60;;;;;19.71;47.94;100826.41;5056335;28;8932;-64
2022/05/09 08:37:43;;;;;;;;;8.80;6.20;;;;;19.79;48.02;100816.50;5056004;28;8838;-64
2022/05/09 08:40:11;;;;;;;;;7.60;7.00;;;;;19.91;48.39;100817.06;5056665;28;8847;-64
2022/05/09 08:42:38;;;;;;;;;9.20;9.20;;;;;20.02;48.17;100820.34;5052214;28;8982;-64
2022/05/09 08:45:06;;;;;;;;;10.80;10.00;;;;;20.14;47.92;100824.50;5055880;28;8834;-64
2022/05/09 08:47:35;;;;;;;;;9.00;6.20;;;;;20.22;48.09;100824.53;5056150;28;8857;-64
2022/05/09 08:50:03;;;;;;;;;8.80;8.80;;;;;20.31;47.70;100826.28;5056256;28;8916;-64
2022/05/09 08:52:31;;;;;;;;;8.80;8.80;;;;;20.43;47.75;100816.88;5055740;28;9001;-63
2022/05/09 08:55:05;;;;;;;;;10.00;9.20;;;;;20.54;47.60;100811.13;5053311;28;8853;-64
2022/05/09 08:57:34;;;;;;;;;8.20;8.20;;;;;20.65;47.71;100815.41;5054017;28;8919;-64
2022/05/09 09:00:01;;;;;;;;;9.40;8.00;;;;;20.80;47.44;100817.31;5034701;28;9007;-64
2022/05/09 09:02:29;;;;;;;;;7.00;7.00;;;;;20.96;47.05;100814.66;5033492;28;8871;-64
2022/05/09 09:05:01;;;;;;;;;7.80;7.80;;;;;21.12;47.63;100812.81;5034322;28;8959;-63
2022/05/09 09:07:29;;;;;;;;;8.00;8.00;;;;;21.26;47.36;100809.44;5033654;28;8863;-66
2022/05/09 09:09:57;;;;;;;;;7.80;7.80;;;;;21.39;46.94;100807.06;5034348;28;8844;-64
2022/05/09 09:12:25;;;;;;;;;8.00;7.60;;;;;21.50;46.89;100803.16;5035787;28;8855;-65
2022/05/09 09:14:53;;;;;;;;;8.00;7.00;;;;;21.61;46.89;100802.81;5053813;28;8977;-64
2022/05/09 09:17:24;;;;;;;;;8.00;5.60;;;;;21.77;46.74;100800.09;5055067;28;9596;-63
2022/05/09 09:19:53;;;;;;;;;9.80;8.80;;;;;21.91;46.41;100804.81;5054739;28;8923;-64
2022/05/09 09:22:20;;;;;;;;;8.80;8.80;;;;;22.01;45.98;100797.34;5054988;28;8889;-64
2022/05/09 09:24:48;;;;;;;;;9.80;9.80;;;;;22.15;46.59;100794.75;5055207;28;8834;-64
2022/05/09 09:27:17;;;;;;;;;7.80;7.80;;;;;22.31;45.56;100799.28;5055531;28;9684;-64
2022/05/09 09:29:45;;;;;;;;;9.20;8.00;;;;;22.43;45.79;100800.59;5055560;28;8960;-64
2022/05/09 09:32:13;;;;;;;;;9.80;9.00;;;;;22.59;45.75;100795.94;5054620;28;9502;-64
2022/05/09 09:34:41;;;;;;;;;12.00;9.80;;;;;22.78;45.78;100795.47;5054618;28;8900;-64
2022/05/09 09:37:09;;;;;;;;;11.00;9.60;;;;;22.97;45.23;100783.28;5054937;28;9009;-64
2022/05/09 09:39:36;;;;;;;;;8.00;6.80;;;;;23.18;44.99;100791.66;5054519;28;8850;-64
2022/05/09 09:42:04;;;;;;;;;8.60;8.60;;;;;23.42;44.59;100781.44;5048345;28;8836;-64
2022/05/09 09:44:34;;;;;;;;;11.00;10.60;;;;;23.78;43.93;100793.34;5034567;28;9516;-64
2022/05/09 09:47:02;;;;;;;;;11.40;11.40;;;;;24.21;43.44;100780.78;5034240;28;8975;-64
2022/05/09 09:49:30;;;;;;;;;9.40;8.80;;;;;24.70;42.73;100776.41;5034687;28;8879;-64
2022/05/09 09:51:58;;;;;;;;;13.20;11.80;;;;;25.20;42.42;100768.13;5033615;28;8864;-64
2022/05/09 09:54:26;;;;;;;;;11.60;10.60;;;;;25.71;41.73;100773.22;5033974;28;8971;-65
2022/05/09 09:57:00;;;;;;;;;10.60;10.60;;;;;26.20;40.75;100771.25;5034496;28;8876;-64
2022/05/09 09:59:27;;;;;;;;;12.20;11.20;;;;;26.63;40.72;100770.03;5034175;28;8848;-64
2022/05/09 10:01:55;;;;;;;;;12.00;12.00;;;;;26.99;40.77;100760.44;5033478;28;8832;-65
2022/05/09 10:04:23;;;;;;;;;11.20;11.20;;;;;27.35;39.84;100762.81;5033768;28;8840;-65
2022/05/09 10:06:51;;;;;;;;;7.60;7.60;;;;;27.71;39.73;100763.22;5033371;28;8852;-65
2022/05/09 10:09:19;;;;;;;;;10.60;9.40;;;;;28.03;39.16;100751.41;5032600;28;8877;-64
2022/05/09 10:11:47;;;;;;;;;12.00;11.00;;;;;28.39;38.69;100749.84;5032335;28;8868;-64
2022/05/09 10:14:14;;;;;;;;;14.40;13.20;;;;;28.79;38.58;100740.34;5032058;28;8943;-65
2022/05/09 10:16:45;;;;;;;;;8.60;8.00;;;;;29.16;38.05;100739.50;5033246;28;8848;-65
2022/05/09 10:19:14;;;;;;;;;8.00;7.00;;;;;29.48;37.68;100738.38;5031983;28;8871;-65
2022/05/09 10:27:12;;;;;;;;;9.20;9.20;;;;;30.00;37.10;100726.91;5032836;28;8994;-65
2022/05/09 10:29:40;;;;;;;;;12.80;10.40;;;;;30.24;37.01;100725.19;5033051;28;9561;-65
2022/05/09 10:32:08;;;;;;;;;10.00;9.00;;;;;30.52;36.87;100719.94;5032053;28;8843;-66
2022/05/09 10:34:36;;;;;;;;;9.20;9.00;;;;;30.63;36.74;100722.78;5032886;28;8840;-65
2022/05/09 10:37:06;;;;;;;;;9.20;9.00;;;;;30.79;36.95;100719.38;5032998;28;8840;-65
2022/05/09 10:39:34;;;;;;;;;11.00;10.60;;;;;30.99;36.64;100718.03;5032403;28;8987;-65
2022/05/09 10:42:02;;;;;;;;;10.20;8.20;;;;;31.23;36.20;100716.16;5035335;28;8868;-67
2022/05/09 10:44:32;;;;;;;;;8.00;7.20;;;;;31.43;36.12;100711.19;5050924;28;8842;-65
2022/05/09 10:47:00;;;;;;;;;11.40;10.20;;;;;31.60;35.44;100713.00;5051922;28;8826;-64
2022/05/09 10:49:29;;;;;;;;;8.80;8.60;;;;;31.83;35.65;100712.16;5042206;28;9713;-64
2022/05/09 10:51:57;;;;;;;;;6.80;6.20;;;;;32.00;35.44;100710.31;5031996;28;8990;-63
2022/05/09 10:54:25;;;;;;;;;8.00;8.00;;;;;32.19;35.01;100703.59;5033242;28;8851;-64
2022/05/09 10:56:53;;;;;;;;;7.60;7.00;;;;;32.33;34.48;100696.75;5032922;28;8832;-64
2022/05/09 10:59:20;;;;;;;;;8.40;8.40;;;;;32.53;34.24;100698.00;5032465;28;8852;-65
2022/05/09 11:01:50;;;;;;;;;12.20;11.20;;;;;32.74;34.30;100693.72;5032662;28;8929;-64
2022/05/09 11:04:19;;;;;;;;;10.00;9.00;;;;;33.02;33.70;100693.69;5031636;28;8852;-65
2022/05/09 11:06:47;;;;;;;;;10.00;9.00;;;;;33.31;33.49;100692.56;5032327;28;8840;-64
2022/05/09 11:09:15;;;;;;;;;7.80;7.20;;;;;33.10;33.82;100691.38;5032050;28;8848;-64
2022/05/09 11:11:43;;;;;;;;;10.80;10.80;;;;;32.48;34.95;100688.78;5030603;28;8975;-65
2022/05/09 11:14:11;;;;;;;;;5.00;5.00;;;;;32.23;35.36;100688.28;5030736;28;8856;-65
2022/05/09 11:16:38;;;;;;;;;9.20;9.00;;;;;32.50;34.77;100679.19;5031275;28;8855;-65
2022/05/09 11:19:06;;;;;;;;;8.00;7.80;;;;;32.89;34.48;100682.97;5036597;28;8972;-64
2022/05/09 11:21:34;;;;;;;;;8.40;7.80;;;;;33.25;34.28;100679.75;5051755;28;8949;-64
2022/05/09 11:24:03;;;;;;;;;8.40;8.40;;;;;33.46;34.02;100685.34;5052701;28;8861;-65
2022/05/09 11:26:31;;;;;;;;;9.20;8.80;;;;;33.16;34.49;100684.00;5051738;28;8872;-64
2022/05/09 11:28:59;;;;;;;;;11.20;10.80;;;;;33.13;33.85;100676.19;5045437;28;8886;-64
2022/05/09 11:31:27;;;;;;;;;8.80;8.80;;;;;33.39;33.67;100676.41;5034946;28;8838;-64
2022/05/09 11:33:58;;;;;;;;;9.80;7.60;;;;;33.60;33.37;100677.56;5037074;28;8975;-64
2022/05/09 11:36:26;;;;;;;;;8.00;8.00;;;;;33.85;33.12;100673.28;5037321;28;8874;-64
2022/05/09 11:38:54;;;;;;;;;9.00;9.00;;;;;34.11;32.35;100666.97;5037433;28;8836;-66
2022/05/09 11:41:22;;;;;;;;;8.80;8.80;;;;;34.45;32.25;100673.22;5036581;28;8848;-64
2022/05/09 11:43:50;;;;;;;;;5.40;5.20;;;;;34.46;31.95;100663.81;5035280;28;8868;-64
2022/05/09 11:46:17;;;;;;;;;9.60;9.00;;;;;34.60;32.41;100665.09;5035250;28;8982;-65
2022/05/09 11:48:45;;;;;;;;;11.00;9.80;;;;;34.83;31.74;100657.34;5034774;28;8895;-65